createdAt,value
2023-09-27T00:01:52.378Z,2.73
2023-09-27T00:04:20.480Z,3.03
2023-09-27T00:06:47.060Z,2.95
2023-09-27T00:09:13.550Z,3.10
2023-09-27T00:11:41.140Z,3.17
2023-09-27T00:14:07.675Z,3.00
2023-09-27T00:16:34.345Z,2.88
2023-09-27T00:19:00.932Z,2.92
2023-09-27T00:21:28.831Z,2.80
2023-09-27T00:23:55.430Z,3.20
2023-09-27T00:26:21.929Z,2.97
2023-09-27T00:28:48.392Z,3.28
2023-09-27T00:31:15.893Z,2.63
2023-09-27T00:33:42.314Z,3.08
2023-09-27T00:36:10.929Z,2.90
2023-09-27T00:38:38.670Z,2.80
2023-09-27T00:41:05.175Z,2.83
2023-09-27T00:43:33.086Z,2.95
2023-09-27T00:46:02.143Z,3.15
2023-09-27T00:48:29.494Z,2.95
2023-09-27T00:50:56.573Z,3.00
2023-09-27T00:53:26.404Z,2.80
2023-09-27T00:55:55.638Z,2.88
2023-09-27T00:58:22.681Z,2.90
2023-09-27T01:00:50.380Z,2.60
2023-09-27T01:03:17.116Z,3.00
2023-09-27T01:05:44.216Z,2.92
2023-09-27T01:08:11.316Z,3.00
2023-09-27T01:10:38.650Z,3.00
2023-09-27T01:13:07.896Z,2.60
2023-09-27T01:15:34.671Z,3.30
2023-09-27T01:18:02.265Z,3.10
2023-09-27T01:20:29.790Z,2.67
2023-09-27T01:22:58.238Z,2.83
2023-09-27T01:25:27.952Z,2.90
2023-09-27T01:27:54.440Z,3.33
2023-09-27T01:30:21.173Z,3.03
2023-09-27T01:32:47.697Z,3.67
2023-09-27T01:35:14.378Z,3.15
2023-09-27T01:37:40.825Z,2.92
2023-09-27T01:40:09.764Z,3.07
2023-09-27T01:42:36.610Z,2.88
2023-09-27T01:45:03.571Z,3.13
2023-09-27T01:47:30.023Z,2.72
2023-09-27T01:49:56.588Z,2.88
2023-09-27T01:52:23.118Z,3.10
2023-09-27T01:54:50.591Z,3.17
2023-09-27T01:57:18.336Z,3.17
2023-09-27T01:59:44.893Z,3.13
2023-09-27T02:02:11.332Z,3.17
2023-09-27T02:04:37.854Z,3.00
2023-09-27T02:07:04.884Z,2.78
2023-09-27T02:09:31.391Z,2.92
2023-09-27T02:11:57.895Z,3.35
2023-09-27T02:14:25.707Z,3.45
2023-09-27T02:16:52.309Z,3.57
2023-09-27T02:19:18.738Z,3.40
2023-09-27T02:21:45.156Z,3.15
2023-09-27T02:24:11.647Z,3.30
2023-09-27T02:26:38.241Z,3.33
2023-09-27T02:29:06.446Z,3.60
2023-09-27T02:31:34.479Z,3.67
2023-09-27T02:34:00.879Z,3.30
2023-09-27T02:36:27.368Z,3.60
2023-09-27T02:38:54.566Z,3.28
2023-09-27T02:41:21.119Z,3.27
2023-09-27T02:43:47.557Z,3.22
2023-09-27T02:46:14.096Z,3.10
2023-09-27T02:48:41.860Z,3.22
2023-09-27T02:51:08.266Z,3.25
2023-09-27T02:53:34.823Z,3.30
2023-09-27T02:56:01.291Z,4.00
2023-09-27T02:58:27.721Z,3.75
2023-09-27T03:00:54.177Z,3.65
2023-09-27T03:03:20.927Z,4.05
2023-09-27T03:05:48.843Z,4.00
2023-09-27T03:08:15.387Z,5.15
2023-09-27T03:10:41.861Z,4.50
2023-09-27T03:13:08.301Z,4.50
2023-09-27T03:15:37.658Z,4.50
2023-09-27T03:18:05.047Z,4.70
2023-09-27T03:20:31.749Z,4.82
2023-09-27T03:22:59.738Z,4.63
2023-09-27T03:25:26.448Z,5.05
2023-09-27T03:27:52.866Z,4.50
2023-09-27T03:30:19.313Z,4.57
2023-09-27T03:32:45.748Z,4.63
2023-09-27T03:35:12.666Z,4.32
2023-09-27T03:37:39.468Z,4.55
2023-09-27T03:40:08.792Z,4.30
2023-09-27T03:42:35.300Z,4.97
2023-09-27T03:45:01.824Z,5.00
2023-09-27T03:47:28.366Z,4.55
2023-09-27T03:49:55.117Z,4.38
2023-09-27T03:52:21.715Z,4.57
2023-09-27T03:54:48.238Z,4.47
2023-09-27T03:57:16.033Z,4.80
2023-09-27T03:59:42.847Z,4.88
2023-09-27T04:02:09.488Z,4.38
2023-09-27T04:04:35.983Z,4.15
2023-09-27T04:07:02.727Z,4.37
2023-09-27T04:09:29.992Z,3.72
2023-09-27T04:11:56.442Z,3.92
2023-09-27T04:14:24.362Z,3.60
2023-09-27T04:16:50.838Z,3.40
2023-09-27T04:19:17.485Z,3.50
2023-09-27T04:21:44.037Z,4.05
2023-09-27T04:24:10.523Z,3.50
2023-09-27T04:26:36.974Z,3.65
2023-09-27T04:29:04.976Z,4.57
2023-09-27T04:31:33.447Z,3.67
2023-09-27T04:33:59.884Z,4.07
2023-09-27T04:36:29.278Z,3.38
2023-09-27T04:38:55.790Z,3.70
2023-09-27T04:41:22.448Z,3.58
2023-09-27T04:43:48.938Z,3.70
2023-09-27T04:46:16.354Z,3.65
2023-09-27T04:48:44.452Z,3.47
2023-09-27T04:51:11.417Z,3.63
2023-09-27T04:53:38.520Z,3.60
2023-09-27T04:56:06.069Z,3.33
2023-09-27T04:58:32.567Z,3.58
2023-09-27T05:01:00.229Z,3.72
2023-09-27T05:03:26.870Z,3.47
2023-09-27T05:05:56.329Z,4.00
2023-09-27T05:08:22.976Z,3.70
2023-09-27T05:10:49.445Z,3.83
2023-09-27T05:13:15.955Z,3.90
2023-09-27T05:15:42.575Z,3.70
2023-09-27T05:18:09.130Z,3.70
2023-09-27T05:20:36.758Z,4.10
2023-09-27T05:23:14.287Z,4.05
2023-09-27T05:25:43.711Z,4.05
2023-09-27T05:28:10.236Z,4.47
2023-09-27T05:30:37.056Z,4.30
2023-09-27T05:33:03.977Z,4.10
2023-09-27T05:35:30.627Z,4.68
2023-09-27T05:37:57.239Z,3.92
2023-09-27T05:40:25.140Z,4.72
2023-09-27T05:42:51.680Z,4.43
2023-09-27T05:45:18.364Z,4.17
2023-09-27T05:47:44.947Z,4.15
2023-09-27T05:50:11.942Z,4.82
2023-09-27T05:52:38.524Z,7.13
2023-09-27T05:55:05.801Z,6.68
2023-09-27T05:57:33.720Z,5.37
2023-09-27T06:00:00.384Z,4.10
2023-09-27T06:02:29.564Z,4.30
2023-09-27T06:04:56.248Z,4.15
2023-09-27T06:07:28.547Z,4.20
2023-09-27T06:09:55.402Z,3.83
2023-09-27T06:12:21.975Z,3.47
2023-09-27T06:14:49.773Z,3.95
2023-09-27T06:17:16.311Z,3.47
2023-09-27T06:19:42.932Z,3.75
2023-09-27T06:22:09.404Z,3.77
2023-09-27T06:24:35.897Z,3.55
2023-09-27T06:27:02.371Z,3.60
2023-09-27T06:29:28.926Z,3.45
2023-09-27T06:31:57.308Z,3.40
2023-09-27T06:34:23.847Z,3.60
2023-09-27T06:36:50.370Z,3.47
2023-09-27T06:39:16.958Z,3.40
2023-09-27T06:41:43.884Z,3.78
2023-09-27T06:44:10.572Z,3.47
2023-09-27T06:46:48.314Z,3.73
2023-09-27T06:49:17.256Z,3.53
2023-09-27T06:51:43.833Z,3.65
2023-09-27T06:54:10.353Z,3.30
2023-09-27T06:56:37.053Z,3.53
2023-09-27T06:59:03.566Z,3.97
2023-09-27T07:01:30.123Z,4.00
2023-09-27T07:03:56.807Z,3.70
2023-09-27T07:06:24.715Z,3.65
2023-09-27T07:08:51.405Z,4.28
2023-09-27T07:11:18.062Z,4.30
2023-09-27T07:13:44.528Z,3.50
2023-09-27T07:16:21.733Z,4.15
2023-09-27T07:18:48.788Z,4.20
2023-09-27T07:21:15.437Z,3.65
2023-09-27T07:23:43.230Z,3.80
2023-09-27T07:26:10.287Z,3.90
2023-09-27T07:28:36.762Z,3.83
2023-09-27T07:31:03.340Z,3.92
2023-09-27T07:33:29.814Z,3.35
2023-09-27T07:35:56.225Z,3.90
2023-09-27T07:38:22.643Z,3.30
2023-09-27T07:40:51.322Z,3.33
2023-09-27T07:43:17.734Z,4.38
2023-09-27T07:45:44.144Z,3.72
2023-09-27T07:48:10.897Z,3.70
2023-09-27T07:50:37.722Z,3.58
2023-09-27T07:53:05.179Z,3.10
2023-09-27T07:55:31.765Z,3.45
2023-09-27T07:57:59.972Z,3.30
2023-09-27T08:00:27.400Z,3.73
2023-09-27T08:02:53.931Z,3.10
2023-09-27T08:05:20.464Z,3.30
2023-09-27T08:07:47.048Z,3.08
2023-09-27T08:12:42.789Z,3.00
2023-09-27T08:15:11.963Z,3.00
2023-09-27T08:17:38.653Z,3.17
2023-09-27T08:20:06.152Z,2.90
2023-09-27T08:22:32.816Z,2.75
2023-09-27T08:24:59.249Z,2.80
2023-09-27T08:27:26.033Z,3.05
2023-09-27T08:29:52.443Z,2.60
2023-09-27T08:32:20.313Z,3.13
2023-09-27T08:34:46.807Z,3.10
2023-09-27T08:37:13.321Z,2.60
2023-09-27T08:39:39.833Z,3.08
2023-09-27T08:42:06.658Z,3.05
2023-09-27T08:44:33.477Z,3.25
2023-09-27T08:47:01.444Z,3.45
2023-09-27T08:49:29.625Z,3.33
2023-09-27T08:51:56.075Z,2.58
2023-09-27T08:54:22.571Z,3.35
2023-09-27T08:56:50.681Z,2.90
2023-09-27T08:59:17.403Z,2.60
2023-09-27T09:01:45.893Z,2.67
2023-09-27T09:04:12.558Z,2.80
2023-09-27T09:06:41.246Z,2.30
2023-09-27T09:09:08.775Z,2.67
2023-09-27T09:11:35.815Z,2.78
2023-09-27T09:14:02.259Z,2.47
2023-09-27T09:16:28.706Z,2.33
2023-09-27T09:18:56.451Z,2.47
2023-09-27T09:21:23.416Z,2.60
2023-09-27T09:23:51.410Z,2.53
2023-09-27T09:26:35.741Z,2.33
2023-09-27T09:29:02.305Z,2.63
2023-09-27T09:31:29.951Z,2.35
2023-09-27T09:34:08.212Z,2.40
2023-09-27T09:36:35.464Z,1.90
2023-09-27T09:39:07.570Z,2.47
2023-09-27T09:41:47.057Z,2.50
2023-09-27T09:44:21.574Z,2.13
2023-09-27T09:46:48.917Z,2.10
2023-09-27T09:49:16.181Z,2.60
2023-09-27T09:51:47.284Z,2.20
2023-09-27T09:54:20.336Z,2.50
2023-09-27T09:57:00.509Z,2.17
2023-09-27T09:59:37.779Z,2.13
2023-09-27T10:02:15.658Z,2.42
2023-09-27T10:04:42.987Z,2.20
2023-09-27T10:07:10.369Z,2.47
2023-09-27T10:09:38.437Z,1.98
2023-09-27T10:12:05.511Z,2.28
2023-09-27T10:14:32.460Z,2.42
2023-09-27T10:16:59.082Z,2.50
2023-09-27T10:19:26.626Z,2.30
2023-09-27T10:22:02.256Z,2.20
2023-09-27T10:24:29.334Z,2.00
2023-09-27T10:26:57.120Z,2.50
2023-09-27T10:29:26.601Z,2.90
2023-09-27T10:32:20.218Z,2.45
2023-09-27T10:34:48.047Z,3.08
2023-09-27T10:37:19.228Z,2.22
2023-09-27T10:40:18.036Z,2.70
2023-09-27T10:42:45.836Z,2.60
2023-09-27T10:45:12.399Z,2.38
2023-09-27T10:47:39.041Z,2.55
2023-09-27T10:50:08.958Z,2.67
2023-09-27T10:52:37.867Z,2.40
2023-09-27T10:55:11.745Z,2.40
2023-09-27T10:57:40.676Z,2.40
2023-09-27T11:00:09.472Z,2.30
2023-09-27T11:02:36.072Z,2.00
2023-09-27T11:05:02.515Z,2.30
2023-09-27T11:07:43.116Z,2.13
2023-09-27T11:10:09.874Z,2.40
2023-09-27T11:12:36.375Z,2.47
2023-09-27T11:15:03.133Z,2.63
2023-09-27T11:17:32.099Z,2.30
2023-09-27T11:20:10.863Z,2.50
2023-09-27T11:22:37.278Z,2.13
2023-09-27T11:25:24.767Z,2.00
2023-09-27T11:27:51.439Z,2.10
2023-09-27T11:30:24.308Z,2.30
2023-09-27T11:32:52.265Z,2.50
2023-09-27T11:35:19.671Z,2.20
2023-09-27T11:37:46.255Z,2.22
2023-09-27T11:40:12.729Z,2.17
2023-09-27T11:42:39.432Z,2.25
2023-09-27T11:45:07.957Z,2.30
2023-09-27T11:47:45.883Z,2.40
2023-09-27T11:50:14.058Z,2.22
2023-09-27T11:52:40.481Z,2.20
2023-09-27T11:55:08.023Z,2.08
2023-09-27T11:57:34.502Z,2.30
2023-09-27T12:00:00.936Z,2.03
2023-09-27T12:02:31.006Z,2.00
2023-09-27T12:04:59.944Z,2.60
2023-09-27T12:07:28.166Z,2.15
2023-09-27T12:09:55.479Z,2.27
2023-09-27T12:12:22.330Z,2.00
2023-09-27T12:14:48.860Z,2.08
2023-09-27T12:17:15.381Z,2.25
2023-09-27T12:19:41.937Z,2.05
2023-09-27T12:22:08.356Z,2.30
2023-09-27T12:24:36.109Z,2.08
2023-09-27T12:27:03.058Z,1.80
2023-09-27T12:29:30.589Z,2.17
2023-09-27T12:31:57.352Z,1.83
2023-09-27T12:34:24.049Z,2.17
2023-09-27T12:36:50.471Z,2.08
2023-09-27T12:39:20.833Z,1.85
2023-09-27T12:41:48.774Z,1.90
2023-09-27T12:44:22.089Z,2.05
2023-09-27T12:46:49.763Z,2.20
2023-09-27T12:49:16.267Z,2.15
2023-09-27T12:51:49.551Z,1.90
2023-09-27T12:54:16.576Z,2.17
2023-09-27T12:56:43.134Z,2.10
2023-09-27T12:59:11.268Z,1.90
2023-09-27T13:01:40.463Z,2.10
2023-09-27T13:04:07.597Z,1.77
2023-09-27T13:06:34.094Z,1.85
2023-09-27T13:09:00.608Z,2.20
2023-09-27T13:11:27.085Z,2.23
2023-09-27T13:13:53.508Z,2.08
2023-09-27T13:16:21.285Z,2.10
2023-09-27T13:18:47.772Z,2.45
2023-09-27T13:21:14.291Z,2.20
2023-09-27T13:23:41.095Z,2.10
2023-09-27T13:26:07.729Z,2.00
2023-09-27T13:28:34.145Z,2.05
2023-09-27T13:31:00.622Z,2.15
2023-09-27T13:33:28.532Z,2.28
2023-09-27T13:35:55.097Z,2.17
2023-09-27T13:38:21.646Z,2.10
2023-09-27T13:40:48.101Z,2.10
2023-09-27T13:43:14.524Z,2.20
2023-09-27T13:45:41.111Z,2.17
2023-09-27T13:48:07.802Z,2.37
2023-09-27T13:50:35.793Z,1.90
2023-09-27T13:53:02.278Z,2.00
2023-09-27T13:55:31.652Z,2.30
2023-09-27T13:57:58.134Z,1.92
2023-09-27T14:00:24.886Z,2.10
2023-09-27T14:02:51.368Z,2.17
2023-09-27T14:05:18.371Z,2.25
2023-09-27T14:07:47.311Z,1.90
2023-09-27T14:10:13.766Z,2.10
2023-09-27T14:12:40.463Z,1.93
2023-09-27T14:15:07.760Z,2.25
2023-09-27T14:17:34.365Z,2.10
2023-09-27T14:20:00.952Z,2.00
2023-09-27T14:22:27.465Z,1.80
2023-09-27T14:24:55.382Z,2.27
2023-09-27T14:27:21.882Z,2.00
2023-09-27T14:29:48.342Z,2.10
2023-09-27T14:32:14.946Z,2.00
2023-09-27T14:34:56.566Z,1.73
2023-09-27T14:37:23.831Z,2.10
2023-09-27T14:39:50.294Z,1.80
2023-09-27T14:42:18.171Z,2.17
2023-09-27T14:44:44.904Z,2.03
2023-09-27T14:47:11.459Z,1.70
2023-09-27T14:49:37.982Z,2.30
2023-09-27T14:52:04.569Z,2.20
2023-09-27T14:54:30.998Z,1.90
2023-09-27T14:56:57.565Z,2.00
2023-09-27T14:59:27.324Z,2.10
2023-09-27T15:01:53.801Z,2.17
2023-09-27T15:04:20.596Z,1.80
2023-09-27T15:06:47.127Z,1.70
2023-09-27T15:09:13.690Z,2.17
2023-09-27T15:11:40.145Z,1.77
2023-09-27T15:14:06.711Z,1.70
2023-09-27T15:16:34.586Z,2.00
2023-09-27T15:19:01.264Z,2.15
2023-09-27T15:21:27.813Z,1.80
2023-09-27T15:23:54.389Z,2.00
2023-09-27T15:26:20.944Z,2.00
2023-09-27T15:28:47.486Z,1.73
2023-09-27T15:31:14.051Z,1.75
2023-09-27T15:33:41.876Z,2.20
2023-09-27T15:36:08.339Z,2.05
2023-09-27T15:38:35.116Z,1.90
2023-09-27T15:41:01.687Z,1.98
2023-09-27T15:43:28.486Z,1.70
2023-09-27T15:45:59.654Z,1.98
2023-09-27T15:48:27.911Z,2.10
2023-09-27T15:50:55.806Z,1.97
2023-09-27T15:53:22.260Z,1.90
2023-09-27T15:55:48.809Z,1.65
2023-09-27T15:58:15.380Z,1.67
2023-09-27T16:00:42.049Z,1.85
2023-09-27T16:03:08.693Z,2.00
2023-09-27T16:05:35.381Z,1.70
2023-09-27T16:08:03.718Z,1.83
2023-09-27T16:10:32.515Z,2.08
2023-09-27T16:12:59.105Z,1.90
2023-09-27T16:15:25.695Z,2.23
2023-09-27T16:17:52.206Z,1.90
2023-09-27T16:20:18.686Z,1.90
2023-09-27T16:22:45.178Z,2.47
2023-09-27T16:25:13.036Z,2.10
2023-09-27T16:27:39.591Z,2.20
2023-09-27T16:30:07.988Z,1.80
2023-09-27T16:32:35.144Z,1.75
2023-09-27T16:35:01.912Z,2.20
2023-09-27T16:37:28.520Z,2.00
2023-09-27T16:39:55.150Z,2.33
2023-09-27T16:42:23.070Z,2.25
2023-09-27T16:44:51.698Z,2.30
2023-09-27T16:47:18.259Z,2.78
2023-09-27T16:49:44.704Z,2.70
2023-09-27T16:52:11.448Z,2.80
2023-09-27T16:54:38.004Z,2.60
2023-09-27T16:57:04.547Z,2.70
2023-09-27T16:59:33.861Z,2.78
2023-09-27T17:02:00.440Z,2.55
2023-09-27T17:04:27.050Z,2.80
2023-09-27T17:06:53.593Z,2.70
2023-09-27T17:09:20.171Z,3.40
2023-09-27T17:11:46.688Z,3.10
2023-09-27T17:14:13.119Z,3.35
2023-09-27T17:16:41.114Z,4.10
2023-09-27T17:19:07.654Z,4.15
2023-09-27T17:21:34.335Z,4.15
2023-09-27T17:24:01.253Z,4.18
2023-09-27T17:26:27.830Z,3.50
2023-09-27T17:28:54.326Z,3.30
2023-09-27T17:31:21.258Z,3.72
2023-09-27T17:33:49.489Z,3.53
2023-09-27T17:36:16.224Z,3.30
2023-09-27T17:38:42.695Z,3.95
2023-09-27T17:41:10.404Z,3.40
2023-09-27T17:43:36.996Z,3.10
2023-09-27T17:46:19.681Z,3.90
2023-09-27T17:48:46.394Z,3.40
2023-09-27T17:51:14.260Z,3.40
2023-09-27T17:53:40.881Z,3.37
2023-09-27T17:56:08.939Z,3.22
2023-09-27T17:58:35.647Z,3.38
2023-09-27T18:01:02.169Z,3.20
2023-09-27T18:03:28.797Z,4.05
2023-09-27T18:05:55.439Z,3.30
2023-09-27T18:08:23.236Z,3.83
2023-09-27T18:10:49.687Z,4.50
2023-09-27T18:13:18.585Z,3.58
2023-09-27T18:15:46.235Z,3.50
2023-09-27T18:18:12.918Z,3.20
2023-09-27T18:20:39.668Z,2.75
2023-09-27T18:23:06.197Z,2.95
2023-09-27T18:25:34.323Z,2.80
2023-09-27T18:28:01.333Z,2.88
2023-09-27T18:30:27.886Z,3.00
2023-09-27T18:32:54.397Z,2.90
2023-09-27T18:35:20.850Z,2.75
2023-09-27T18:37:47.295Z,2.63
2023-09-27T18:40:13.987Z,2.60
2023-09-27T18:42:41.869Z,2.63
2023-09-27T18:45:09.880Z,2.75
2023-09-27T18:47:36.716Z,2.60
2023-09-27T18:50:03.511Z,2.80
2023-09-27T18:52:30.085Z,2.75
2023-09-27T18:54:56.652Z,2.90
2023-09-27T18:57:23.184Z,2.45
2023-09-27T18:59:51.062Z,2.55
2023-09-27T19:02:17.595Z,2.20
2023-09-27T19:04:44.327Z,2.60
2023-09-27T19:07:10.892Z,2.50
2023-09-27T19:09:37.339Z,2.50
2023-09-27T19:12:04.248Z,2.45
2023-09-27T19:14:30.726Z,3.42
2023-09-27T19:16:58.565Z,2.35
2023-09-27T19:19:25.171Z,2.30
2023-09-27T19:21:51.611Z,2.60
2023-09-27T19:24:18.097Z,2.45
2023-09-27T19:26:44.727Z,2.60
2023-09-27T19:29:11.212Z,2.45
2023-09-27T19:31:37.913Z,2.43
2023-09-27T19:34:05.954Z,2.35
2023-09-27T19:36:32.496Z,2.60
2023-09-27T19:38:59.153Z,2.60
2023-09-27T19:41:28.967Z,2.30
2023-09-27T19:43:55.517Z,2.50
2023-09-27T19:46:22.408Z,2.30
2023-09-27T19:48:48.948Z,2.40
2023-09-27T19:51:24.070Z,2.60
2023-09-27T19:53:50.895Z,2.58
2023-09-27T19:56:17.467Z,2.57
2023-09-27T19:58:44.566Z,2.42
2023-09-27T20:01:12.325Z,2.67
2023-09-27T20:03:38.879Z,2.40
2023-09-27T20:06:05.437Z,2.30
2023-09-27T20:08:33.299Z,2.77
2023-09-27T20:10:59.886Z,2.55
2023-09-27T20:13:26.509Z,2.58
2023-09-27T20:15:52.986Z,2.30
2023-09-27T20:18:19.548Z,2.33
2023-09-27T20:20:46.247Z,2.70
2023-09-27T20:23:12.707Z,2.90
2023-09-27T20:25:40.701Z,2.65
2023-09-27T20:28:07.155Z,2.60
2023-09-27T20:30:33.771Z,2.60
2023-09-27T20:33:00.277Z,2.97
2023-09-27T20:35:26.989Z,2.70
2023-09-27T20:37:53.526Z,2.67
2023-09-27T20:40:20.207Z,2.53
2023-09-27T20:42:48.045Z,2.78
2023-09-27T20:45:14.662Z,2.80
2023-09-27T20:47:41.321Z,2.70
2023-09-27T20:50:08.583Z,2.92
2023-09-27T20:52:35.175Z,2.67
2023-09-27T20:55:01.680Z,2.55
2023-09-27T20:57:28.412Z,2.50
2023-09-27T20:59:56.416Z,2.50
2023-09-27T21:02:22.897Z,2.65
2023-09-27T21:04:49.435Z,3.08
2023-09-27T21:07:15.943Z,2.70
2023-09-27T21:09:42.469Z,3.00
2023-09-27T21:12:09.299Z,2.90
2023-09-27T21:14:35.916Z,2.50
2023-09-27T21:17:03.962Z,2.50
2023-09-27T21:19:30.638Z,2.40
2023-09-27T21:21:57.142Z,2.63
2023-09-27T21:24:23.607Z,2.50
2023-09-27T21:26:50.899Z,2.50
2023-09-27T21:29:17.348Z,2.80
2023-09-27T21:31:44.197Z,2.45
2023-09-27T21:34:14.611Z,2.70
2023-09-27T21:36:41.241Z,2.33
2023-09-27T21:39:08.166Z,2.53
2023-09-27T21:41:34.713Z,2.80
2023-09-27T21:44:01.400Z,2.67
2023-09-27T21:46:28.135Z,2.90
2023-09-27T21:48:54.823Z,2.70
2023-09-27T21:51:22.874Z,2.92
2023-09-27T21:53:49.715Z,2.80
2023-09-27T21:56:16.599Z,2.72
2023-09-27T21:58:46.137Z,2.83
2023-09-27T22:01:13.948Z,2.40
2023-09-27T22:03:41.483Z,2.75
2023-09-27T22:06:08.725Z,2.97
2023-09-27T22:08:36.918Z,2.40
2023-09-27T22:11:03.518Z,2.73
2023-09-27T22:13:30.468Z,2.33
2023-09-27T22:15:58.247Z,2.25
2023-09-27T22:18:25.228Z,2.70
2023-09-27T22:20:52.246Z,2.45
2023-09-27T22:23:21.218Z,2.70
2023-09-27T22:25:49.001Z,2.70
2023-09-27T22:28:15.457Z,2.83
2023-09-27T22:30:41.936Z,2.60
2023-09-27T22:33:08.399Z,2.97
2023-09-27T22:35:34.912Z,2.40
2023-09-27T22:38:01.510Z,2.70
2023-09-27T22:40:28.104Z,2.65
2023-09-27T22:42:55.934Z,2.40
2023-09-27T22:45:22.578Z,2.60
2023-09-27T22:47:49.150Z,2.37
2023-09-27T22:50:15.592Z,2.10
2023-09-27T22:52:42.078Z,2.75
2023-09-27T22:55:08.884Z,2.45
2023-09-27T22:57:35.364Z,2.70
2023-09-27T23:00:03.989Z,2.80
2023-09-27T23:02:30.509Z,2.40
2023-09-27T23:04:57.030Z,2.45
2023-09-27T23:07:23.486Z,2.40
2023-09-27T23:09:49.962Z,2.30
2023-09-27T23:12:16.395Z,2.70
2023-09-27T23:14:43.017Z,2.50
2023-09-27T23:17:11.017Z,2.42
2023-09-27T23:19:37.507Z,2.30
2023-09-27T23:22:04.007Z,2.10
2023-09-27T23:24:30.594Z,2.60
2023-09-27T23:26:57.429Z,2.10
2023-09-27T23:29:23.893Z,2.33
2023-09-27T23:31:50.478Z,2.45
2023-09-27T23:34:18.321Z,2.40
2023-09-27T23:36:44.813Z,2.60
2023-09-27T23:39:11.219Z,2.22
2023-09-27T23:41:37.724Z,2.58
2023-09-27T23:44:04.858Z,2.30
2023-09-27T23:46:36.227Z,2.40
2023-09-27T23:49:03.048Z,2.43
2023-09-27T23:51:31.583Z,2.50
2023-09-27T23:53:58.054Z,2.25
2023-09-27T23:56:24.529Z,2.63
2023-09-27T23:58:51.068Z,2.22
